• Join FlightAware (Why Join?)
  • Login
  • US Flag 
07:35AM EST


 

Airport Tracker/Info


-or-


 

Live Flight TrackerFlight Track Log ✈ LAN461 ✈ 18-Jul-2013 ✈ SCEL / SCL - SABE / AEP

Flight Track Log - Related Links

Times and Time Zones

All times are in EDT time to prevent confusion due to time zone crossing. See the LAN461 flight status page for this flight to view local times or setup timezone preferences in your user account.

Time Position Orientation Groundspeed Altitude Reporting Facility
EDT Latitude Longitude Course Direction KTS MPH feet Rate Location/Type
04:47PM -33.7530 -70.7820 176° South 362 417 11,900  Level FlightAware
04:48PM -33.8300 -70.7730 174° South 370 426 14,100 2,760 Climbing FlightAware
04:48PM -33.8420 -70.7660 154° Southeast 374 430 14,500 2,640 Climbing FlightAware
04:49PM -33.8760 -70.7280 137° Southeast 397 457 15,400 1,980 Climbing FlightAware
04:49PM -33.9220 -70.6340 121° Southeast 414 476 16,900 1,620 Climbing FlightAware
04:50PM -33.9570 -70.5610 120° Southeast 423 487 18,100 1,620 Climbing FlightAware
04:51PM -33.9960 -70.4700 117° Southeast 434 499 19,300 1,980 Climbing FlightAware
04:52PM -34.0310 -70.3490 109° East 443 510 20,800 1,560 Climbing FlightAware
04:52PM -34.0560 -70.2610 109° East 451 519 21,800 720 Climbing FlightAware
04:53PM -34.0910 -70.1370 109° East 459 528 22,100 120 Climbing FlightAware
04:54PM -34.1330 -69.9890 109° East 459 528 22,100  Level FlightAware
04:55PM -34.1550 -69.9150 110° East 459 528 22,100  Level FlightAware
04:56PM -34.1900 -69.7910 109° East 459 528 22,100 60 Level FlightAware
04:59PM -34.2155 -69.4626 95° East  Level Estimated
05:00PM -34.2256 -69.3294 95° East  Level Estimated
05:01PM -34.2356 -69.1961 95° East  Level Estimated
05:02PM -34.2454 -69.0629 95° East  Level Estimated
05:03PM -34.2551 -68.9296 95° East  Level Estimated
05:04PM -34.2646 -68.7962 95° East  Level Estimated
05:05PM -34.2740 -68.6629 95° East  Level Estimated
05:06PM -34.2832 -68.5295 95° East  Level Estimated
05:07PM -34.2923 -68.3961 95° East  Level Estimated
05:08PM -34.3013 -68.2626 95° East  Level Estimated
05:09PM -34.3101 -68.1292 95° East  Level Estimated
05:10PM -34.3187 -67.9957 95° East  Level Estimated
05:11PM -34.3272 -67.8621 94° East  Level Estimated
05:12PM -34.3356 -67.7286 94° East  Level Estimated
05:13PM -34.3435 -67.6002 94° East  Level Estimated
05:14PM -34.3513 -67.4719 94° East  Level Estimated
05:15PM -34.3589 -67.3435 94° East  Level Estimated
05:16PM -34.3664 -67.2150 94° East  Level Estimated
05:17PM -34.3738 -67.0866 94° East  Level Estimated
05:18PM -34.3810 -66.9582 94° East  Level Estimated
05:19PM -34.3881 -66.8297 94° East  Level Estimated
05:20PM -34.3951 -66.7012 94° East  Level Estimated
05:21PM -34.4019 -66.5726 94° East  Level Estimated
05:22PM -34.4086 -66.4441 94° East  Level Estimated
05:23PM -34.4152 -66.3155 94° East  Level Estimated
05:24PM -34.4216 -66.1869 94° East  Level Estimated
05:25PM -34.4279 -66.0583 93° East  Level Estimated
05:26PM -34.4341 -65.9297 93° East  Level Estimated
05:27PM -34.4401 -65.8010 93° East  Level Estimated
05:28PM -34.4460 -65.6724 93° East  Level Estimated
05:29PM -34.4517 -65.5437 93° East  Level Estimated
05:30PM -34.4573 -65.4150 93° East  Level Estimated
05:31PM -34.4628 -65.2863 93° East  Level Estimated
05:32PM -34.4682 -65.1575 93° East  Level Estimated
05:33PM -34.4734 -65.0288 93° East  Level Estimated
05:34PM -34.4785 -64.9000 93° East  Level Estimated
05:35PM -34.4834 -64.7712 93° East  Level Estimated
05:36PM -34.4882 -64.6424 93° East  Level Estimated
05:37PM -34.4929 -64.5136 93° East  Level Estimated
05:38PM -34.4974 -64.3848 92° East  Level Estimated
05:39PM -34.5018 -64.2560 92° East  Level Estimated
05:40PM -34.5061 -64.1271 92° East  Level Estimated
05:41PM -34.5102 -63.9982 92° East  Level Estimated
05:42PM -34.5142 -63.8694 92° East  Level Estimated
05:43PM -34.5181 -63.7405 92° East  Level Estimated
05:44PM -34.5218 -63.6116 92° East  Level Estimated
05:45PM -34.5254 -63.4827 92° East  Level Estimated
05:46PM -34.5289 -63.3537 92° East  Level Estimated
05:47PM -34.5322 -63.2248 92° East  Level Estimated
05:48PM -34.5354 -63.0959 92° East  Level Estimated
05:49PM -34.5384 -62.9669 92° East  Level Estimated
05:50PM -34.5413 -62.8380 92° East  Level Estimated
05:50PM -35.0170 -60.2300 92° East 502 578 25,500  Level FlightAware
05:51PM -34.5441 -62.7090 92° East  Level Estimated
05:51PM -35.0190 -60.1060 91° East 493 567 24,200  Level FlightAware
05:52PM -35.0200 -59.9920 91° East 482 555 23,100 -1,680 Descending FlightAware
05:52PM -35.0220 -59.8850 91° East 463 533 22,000 -1,620 Descending FlightAware
05:53PM -35.0230 -59.7740 91° East 443 510 20,900 -1,620 Descending FlightAware
05:54PM -35.0240 -59.6750 91° East 424 488 19,800 -1,560 Descending FlightAware
05:55PM -35.0160 -59.5790 84° East 410 472 18,800 -1,500 Descending FlightAware
05:55PM -34.9990 -59.4850 78° East 397 457 17,700 -1,560 Descending FlightAware
05:56PM -34.9830 -59.3920 78° East 386 444 16,600 -1,500 Descending FlightAware
05:57PM -34.9670 -59.3070 77° East 375 432 15,600 -1,500 Descending FlightAware
05:57PM -34.9510 -59.2180 78° East 363 418 14,500 -1,440 Descending FlightAware
05:58PM -34.9370 -59.1400 78° East 351 404 13,600 -1,320 Descending FlightAware
05:59PM -34.9220 -59.0600 77° East 338 389 12,700 -1,380 Descending FlightAware
05:59PM -34.9000 -58.9820 71° East 331 381 11,700 -1,320 Descending FlightAware
06:00PM -34.8860 -58.9680 39° Northeast 330 380 11,500 -1,380 Descending FlightAware
06:00PM -34.8290 -58.9360 25° Northeast 321 369 10,500 -1,140 Descending FlightAware
06:01PM -34.7840 -58.9110 25° Northeast 301 346 10,100 -480 Descending FlightAware
06:01PM -34.7490 -58.8920 24° Northeast 280 322 10,000 -120 Descending FlightAware
06:02PM -34.7040 -58.8680 24° Northeast 267 307 10,000  Level FlightAware
06:02PM -34.6840 -58.8570 24° Northeast 267 307 10,000  Level FlightAware
06:03PM -34.6430 -58.8350 24° Northeast 268 308 10,000  Level FlightAware
06:03PM -34.6110 -58.8170 25° Northeast 269 310 10,000 -1,140 Level FlightAware
06:04PM -34.5810 -58.8010 24° Northeast 280 322 9,000 -2,040 Descending FlightAware
06:04PM -34.5460 -58.7890 16° North 279 321 8,200 -1,500 Descending FlightAware
06:05PM -34.5310 -58.7870 North 271 312 8,000 -420 Descending FlightAware
06:05PM -34.4930 -58.7830 North 257 296 7,900 -900 Descending FlightAware
06:06PM -34.4590 -58.7790 North 267 307 7,100 -1,080 Descending FlightAware
06:06PM -34.4250 -58.7750 North 246 283 6,900 -840 Descending FlightAware
06:06PM -34.3920 -58.7710 North 245 282 6,300 -1,320 Descending FlightAware
06:07PM -34.3620 -58.7670 North 248 285 5,700 -1,260 Descending FlightAware
06:07PM -34.3310 -58.7610 North 244 281 5,200 -1,140 Descending FlightAware
06:08PM -34.3220 -58.7550 29° Northeast 237 273 5,000 -900 Descending FlightAware
06:08PM -34.3150 -58.7440 52° Northeast 225 259 4,900 -600 Descending FlightAware
06:08PM -34.3100 -58.7310 65° Northeast 213 245 4,800 -1,080 Descending FlightAware
06:08PM -34.3110 -58.7120 94° East 207 238 4,400 -1,500 Descending FlightAware
06:08PM -34.3170 -58.7000 121° Southeast 201 231 4,100 -1,260 Descending FlightAware
06:09PM -34.3290 -58.6890 143° Southeast 198 228 3,800 -1,260 Descending FlightAware
06:09PM -34.3490 -58.6720 145° Southeast 200 230 3,200 -1,140 Descending FlightAware
06:10PM -34.3700 -58.6540 145° Southeast 194 223 2,800 -1,080 Descending FlightAware
06:10PM -34.3860 -58.6400 144° Southeast 194 223 2,300 -720 Descending FlightAware
06:10PM -34.4060 -58.6230 145° Southeast 195 224 2,200 -120 Descending FlightAware
06:11PM -34.4270 -58.6050 145° Southeast 181 208 2,200  Level FlightAware
06:12PM -34.4520 -58.5830 144° Southeast 178 205 2,200  Level FlightAware
06:12PM -34.4680 -58.5670 140° Southeast 177 204 2,200  Level FlightAware
06:12PM -34.4830 -58.5510 139° Southeast 150 173 2,200 -360 Level FlightAware
06:13PM -34.4940 -58.5320 125° Southeast 143 165 1,900 -660 Descending FlightAware
06:13PM -34.5040 -58.5140 124° Southeast 138 159 1,600 -840 Descending FlightAware
06:14PM -34.5130 -58.4980 124° Southeast 136 157 1,200 -780 Descending FlightAware
06:14PM -34.5240 -58.4790 125° Southeast 130 150 900 -720 Descending FlightAware
06:15PM -34.5330 -58.4620 123° Southeast 131 151 500 -780 Descending FlightAware
06:15PM -34.5430 -58.4440 124° Southeast 131 151 200 -660 Descending FlightAware
06:16PM -34.5550 -58.4220 124° Southeast 134 154 -360 Descending FlightAware
06:19PM -34.5500 -58.4167 90° East  Level FlightAware Approximate